SND1 SPZO-SLLP
Flight info
| Callsign | SND1 |
|---|---|
| Flight time | 0h 44m |
| Altitude | 37000 |
| Route | ILMOX UV11 JUL UM657 ELAKO |
| Aircraft | A319/M-SDE3FGHIRWY/LB1 |
Departure
| Time | 2026-04-21 23:01 |
|---|---|
| Airport | Alejandro Velasco Astete International Airport (SPZO) |
Arrival
| Time | 2026-04-21 23:46 |
|---|---|
| Airport | El Alto International Airport (SLLP) |
| Time | Latitude | Longitude | Altitude | Speed | Heading |
|---|---|---|---|---|---|
| 2026-04-21 22:28 | -13.53728 | -71.94328 | 10811 ft | 0 kts | 256° |
| 2026-04-21 22:53 | -13.53722 | -71.94303 | 10810 ft | 4 kts | 255° |
| 2026-04-21 22:53 | -13.53716 | -71.94277 | 10808 ft | 4 kts | 287° |
| 2026-04-21 22:53 | -13.53722 | -71.94268 | 10808 ft | 1 kts | 1° |
| 2026-04-21 22:55 | -13.53720 | -71.94268 | 10808 ft | 1 kts | 0° |
| 2026-04-21 22:55 | -13.53703 | -71.94268 | 10808 ft | 4 kts | 360° |
| 2026-04-21 22:56 | -13.53674 | -71.94277 | 10810 ft | 5 kts | 314° |
| 2026-04-21 22:56 | -13.53667 | -71.94307 | 10810 ft | 4 kts | 277° |
| 2026-04-21 22:56 | -13.53662 | -71.94343 | 10812 ft | 6 kts | 277° |
| 2026-04-21 22:56 | -13.53658 | -71.94390 | 10814 ft | 7 kts | 275° |
| 2026-04-21 22:57 | -13.53653 | -71.94447 | 10817 ft | 9 kts | 276° |
| 2026-04-21 22:57 | -13.53646 | -71.94513 | 10821 ft | 10 kts | 276° |
| 2026-04-21 22:57 | -13.53638 | -71.94589 | 10825 ft | 11 kts | 276° |
| 2026-04-21 22:57 | -13.53629 | -71.94674 | 10827 ft | 13 kts | 276° |
| 2026-04-21 22:58 | -13.53619 | -71.94769 | 10834 ft | 14 kts | 276° |
| 2026-04-21 22:58 | -13.53609 | -71.94874 | 10840 ft | 16 kts | 275° |
| 2026-04-21 22:58 | -13.53597 | -71.94991 | 10848 ft | 17 kts | 276° |
| 2026-04-21 22:58 | -13.53585 | -71.95117 | 10857 ft | 18 kts | 276° |
| 2026-04-21 22:59 | -13.53571 | -71.95254 | 10863 ft | 20 kts | 276° |
| 2026-04-21 22:59 | -13.53557 | -71.95389 | 10867 ft | 18 kts | 277° |
| 2026-04-21 22:59 | -13.53507 | -71.95472 | 10868 ft | 13 kts | 3° |
| 2026-04-21 22:59 | -13.53429 | -71.95420 | 10869 ft | 11 kts | 41° |
| 2026-04-21 23:00 | -13.53426 | -71.95337 | 10863 ft | 19 kts | 96° |
| 2026-04-21 23:00 | -13.53466 | -71.94945 | 10845 ft | 91 kts | 96° |
| 2026-04-21 23:00 | -13.53554 | -71.94081 | 10801 ft | 150 kts | 96° |
| 2026-04-21 23:00 | -13.53682 | -71.92837 | 10800 ft | 193 kts | 96° |
| 2026-04-21 23:01 | -13.53825 | -71.91456 | 11436 ft | 197 kts | 96° |
| 2026-04-21 23:01 | -13.53968 | -71.90061 | 12339 ft | 195 kts | 97° |
| 2026-04-21 23:01 | -13.54256 | -71.88700 | 12678 ft | 204 kts | 109° |
| 2026-04-21 23:01 | -13.54864 | -71.87287 | 12772 ft | 223 kts | 117° |
| 2026-04-21 23:02 | -13.55520 | -71.85786 | 12863 ft | 243 kts | 110° |
| 2026-04-21 23:02 | -13.56105 | -71.84070 | 12927 ft | 266 kts | 109° |
| 2026-04-21 23:02 | -13.56756 | -71.82194 | 13051 ft | 290 kts | 110° |
| 2026-04-21 23:02 | -13.57541 | -71.80187 | 13200 ft | 314 kts | 111° |
| 2026-04-21 23:03 | -13.58390 | -71.78036 | 13381 ft | 336 kts | 111° |
| 2026-04-21 23:03 | -13.59291 | -71.75794 | 13989 ft | 341 kts | 114° |
| 2026-04-21 23:03 | -13.60480 | -71.73670 | 14629 ft | 343 kts | 125° |
| 2026-04-21 23:03 | -13.62015 | -71.71823 | 15439 ft | 339 kts | 133° |
| 2026-04-21 23:04 | -13.63634 | -71.70081 | 16282 ft | 333 kts | 133° |
| 2026-04-21 23:04 | -13.65218 | -71.68349 | 17036 ft | 333 kts | 131° |
| 2026-04-21 23:04 | -13.66650 | -71.66466 | 17686 ft | 335 kts | 124° |
| 2026-04-21 23:04 | -13.67855 | -71.64408 | 18312 ft | 338 kts | 117° |
| 2026-04-21 23:05 | -13.68792 | -71.62218 | 18840 ft | 341 kts | 110° |
| 2026-04-21 23:05 | -13.69570 | -71.59899 | 19366 ft | 344 kts | 109° |
| 2026-04-21 23:05 | -13.70361 | -71.57562 | 19909 ft | 348 kts | 109° |
| 2026-04-21 23:05 | -13.71315 | -71.55266 | 20426 ft | 351 kts | 119° |
| 2026-04-21 23:06 | -13.72681 | -71.53172 | 20955 ft | 355 kts | 129° |
| 2026-04-21 23:06 | -13.74409 | -71.51335 | 21326 ft | 364 kts | 140° |
| 2026-04-21 23:06 | -13.76448 | -71.49693 | 21454 ft | 380 kts | 143° |
| 2026-04-21 23:06 | -13.78591 | -71.48019 | 21650 ft | 393 kts | 143° |
| 2026-04-21 23:07 | -13.80788 | -71.46303 | 22052 ft | 399 kts | 143° |
| 2026-04-21 23:07 | -13.83015 | -71.44564 | 22517 ft | 404 kts | 143° |
| 2026-04-21 23:07 | -13.85261 | -71.42810 | 23017 ft | 407 kts | 143° |
| 2026-04-21 23:07 | -13.87530 | -71.41035 | 23515 ft | 411 kts | 143° |
| 2026-04-21 23:08 | -13.89813 | -71.39247 | 23965 ft | 414 kts | 143° |
| 2026-04-21 23:08 | -13.92117 | -71.37442 | 24365 ft | 417 kts | 143° |
| 2026-04-21 23:08 | -13.94431 | -71.35624 | 24771 ft | 420 kts | 142° |
| 2026-04-21 23:08 | -13.96758 | -71.33795 | 25171 ft | 423 kts | 142° |
| 2026-04-21 23:09 | -13.99104 | -71.31951 | 25571 ft | 425 kts | 142° |
| 2026-04-21 23:09 | -14.01463 | -71.30098 | 25967 ft | 428 kts | 142° |
| 2026-04-21 23:09 | -14.03844 | -71.28229 | 26359 ft | 430 kts | 142° |
| 2026-04-21 23:09 | -14.06232 | -71.26357 | 26737 ft | 433 kts | 142° |
| 2026-04-21 23:10 | -14.08634 | -71.24473 | 27106 ft | 436 kts | 142° |
| 2026-04-21 23:10 | -14.11052 | -71.22576 | 27472 ft | 438 kts | 142° |
| 2026-04-21 23:10 | -14.13484 | -71.20663 | 27837 ft | 441 kts | 142° |
| 2026-04-21 23:10 | -14.15928 | -71.18740 | 28185 ft | 444 kts | 142° |
| 2026-04-21 23:11 | -14.18357 | -71.16829 | 28530 ft | 446 kts | 142° |
| 2026-04-21 23:11 | -14.20832 | -71.14883 | 28884 ft | 449 kts | 142° |
| 2026-04-21 23:11 | -14.23321 | -71.12926 | 29241 ft | 451 kts | 142° |
| 2026-04-21 23:11 | -14.25827 | -71.10960 | 29593 ft | 454 kts | 142° |
| 2026-04-21 23:12 | -14.28342 | -71.08982 | 29946 ft | 456 kts | 142° |
| 2026-04-21 23:12 | -14.30867 | -71.06992 | 30284 ft | 458 kts | 142° |
| 2026-04-21 23:12 | -14.33405 | -71.04988 | 30573 ft | 461 kts | 142° |
| 2026-04-21 23:12 | -14.35959 | -71.02972 | 30874 ft | 463 kts | 142° |
| 2026-04-21 23:13 | -14.38514 | -71.00952 | 31167 ft | 464 kts | 142° |
| 2026-04-21 23:13 | -14.41084 | -70.98923 | 31449 ft | 466 kts | 142° |
| 2026-04-21 23:13 | -14.43674 | -70.96884 | 31739 ft | 468 kts | 142° |
| 2026-04-21 23:13 | -14.46261 | -70.94848 | 32107 ft | 467 kts | 142° |
| 2026-04-21 23:14 | -14.48845 | -70.92813 | 32527 ft | 466 kts | 142° |
| 2026-04-21 23:14 | -14.51423 | -70.90780 | 32945 ft | 465 kts | 142° |
| 2026-04-21 23:14 | -14.53990 | -70.88756 | 33361 ft | 464 kts | 142° |
| 2026-04-21 23:14 | -14.56552 | -70.86732 | 33787 ft | 463 kts | 142° |
| 2026-04-21 23:15 | -14.59107 | -70.84713 | 34182 ft | 462 kts | 141° |
| 2026-04-21 23:15 | -14.61654 | -70.82704 | 34535 ft | 461 kts | 141° |
| 2026-04-21 23:15 | -14.64202 | -70.80693 | 34862 ft | 461 kts | 141° |
| 2026-04-21 23:15 | -14.66751 | -70.78680 | 35162 ft | 461 kts | 141° |
| 2026-04-21 23:16 | -14.69293 | -70.76668 | 35467 ft | 461 kts | 141° |
| 2026-04-21 23:16 | -14.71842 | -70.74651 | 35771 ft | 461 kts | 141° |
| 2026-04-21 23:16 | -14.74385 | -70.72637 | 36069 ft | 461 kts | 141° |
| 2026-04-21 23:16 | -14.76908 | -70.70639 | 36362 ft | 461 kts | 141° |
| 2026-04-21 23:17 | -14.79456 | -70.68624 | 36660 ft | 461 kts | 141° |
| 2026-04-21 23:17 | -14.82009 | -70.66603 | 36946 ft | 461 kts | 141° |
| 2026-04-21 23:17 | -14.84556 | -70.64586 | 37225 ft | 461 kts | 141° |
| 2026-04-21 23:17 | -14.87100 | -70.62569 | 37507 ft | 461 kts | 141° |
| 2026-04-21 23:18 | -14.89650 | -70.60549 | 37784 ft | 461 kts | 141° |
| 2026-04-21 23:18 | -14.92205 | -70.58528 | 38050 ft | 462 kts | 141° |
| 2026-04-21 23:18 | -14.97294 | -70.54496 | 38148 ft | 460 kts | 141° |
| 2026-04-21 23:19 | -14.99834 | -70.52475 | 37942 ft | 458 kts | 141° |
| 2026-04-21 23:19 | -15.02321 | -70.50496 | 37431 ft | 456 kts | 141° |
| 2026-04-21 23:19 | -15.04827 | -70.48506 | 37159 ft | 454 kts | 141° |
| 2026-04-21 23:19 | -15.07340 | -70.46512 | 37151 ft | 454 kts | 141° |
| 2026-04-21 23:20 | -15.12361 | -70.42523 | 37151 ft | 455 kts | 141° |
| 2026-04-21 23:20 | -15.17394 | -70.38523 | 37157 ft | 456 kts | 141° |
| 2026-04-21 23:21 | -15.22432 | -70.34524 | 37248 ft | 456 kts | 141° |
| 2026-04-21 23:21 | -15.27462 | -70.30526 | 37339 ft | 456 kts | 141° |
| 2026-04-21 23:22 | -15.32461 | -70.26542 | 37439 ft | 456 kts | 141° |
| 2026-04-21 23:22 | -15.37488 | -70.22533 | 37540 ft | 456 kts | 141° |
| 2026-04-21 23:23 | -15.42534 | -70.18515 | 37576 ft | 456 kts | 141° |
| 2026-04-21 23:23 | -15.47134 | -70.14037 | 37573 ft | 453 kts | 125° |
| 2026-04-21 23:24 | -15.50380 | -70.08489 | 37573 ft | 450 kts | 117° |
| 2026-04-21 23:24 | -15.53465 | -70.02831 | 37479 ft | 451 kts | 117° |
| 2026-04-21 23:25 | -15.56038 | -69.98132 | 37397 ft | 451 kts | 117° |
| 2026-04-21 23:25 | -15.59656 | -69.91506 | 37271 ft | 451 kts | 117° |
| 2026-04-21 23:26 | -15.62212 | -69.86798 | 37176 ft | 451 kts | 117° |
| 2026-04-21 23:26 | -15.65289 | -69.81115 | 37108 ft | 451 kts | 117° |
| 2026-04-21 23:27 | -15.68364 | -69.75439 | 37109 ft | 450 kts | 117° |
| 2026-04-21 23:27 | -15.71435 | -69.69776 | 37084 ft | 450 kts | 117° |
| 2026-04-21 23:28 | -15.72972 | -69.66945 | 36821 ft | 450 kts | 117° |
| 2026-04-21 23:28 | -15.74508 | -69.64115 | 36573 ft | 450 kts | 117° |
| 2026-04-21 23:28 | -15.76040 | -69.61285 | 36327 ft | 450 kts | 117° |
| 2026-04-21 23:28 | -15.77572 | -69.58453 | 36085 ft | 450 kts | 117° |
| 2026-04-21 23:29 | -15.79107 | -69.55616 | 35845 ft | 451 kts | 117° |
| 2026-04-21 23:29 | -15.80648 | -69.52768 | 35608 ft | 451 kts | 117° |
| 2026-04-21 23:29 | -15.82165 | -69.49962 | 35378 ft | 451 kts | 117° |
| 2026-04-21 23:29 | -15.83701 | -69.47120 | 35139 ft | 450 kts | 117° |
| 2026-04-21 23:30 | -15.85232 | -69.44284 | 34905 ft | 449 kts | 117° |
| 2026-04-21 23:30 | -15.86759 | -69.41456 | 34682 ft | 448 kts | 117° |
| 2026-04-21 23:30 | -15.88279 | -69.38638 | 34450 ft | 446 kts | 117° |
| 2026-04-21 23:30 | -15.89791 | -69.35830 | 34224 ft | 444 kts | 117° |
| 2026-04-21 23:31 | -15.91294 | -69.33039 | 33738 ft | 441 kts | 117° |
| 2026-04-21 23:31 | -15.92838 | -69.30286 | 33214 ft | 439 kts | 123° |
| 2026-04-21 23:31 | -15.94633 | -69.27727 | 32707 ft | 437 kts | 125° |
| 2026-04-21 23:31 | -15.96438 | -69.25201 | 32206 ft | 434 kts | 125° |
| 2026-04-21 23:32 | -15.98232 | -69.22681 | 31584 ft | 434 kts | 125° |
| 2026-04-21 23:32 | -16.00048 | -69.20123 | 30594 ft | 444 kts | 125° |
| 2026-04-21 23:32 | -16.01876 | -69.17546 | 30090 ft | 441 kts | 125° |
| 2026-04-21 23:32 | -16.03694 | -69.14983 | 29566 ft | 437 kts | 126° |
| 2026-04-21 23:33 | -16.05480 | -69.12457 | 29096 ft | 431 kts | 125° |
| 2026-04-21 23:33 | -16.07249 | -69.09957 | 28637 ft | 426 kts | 126° |
| 2026-04-21 23:33 | -16.08997 | -69.07489 | 28187 ft | 422 kts | 126° |
| 2026-04-21 23:33 | -16.10731 | -69.05044 | 27748 ft | 418 kts | 126° |
| 2026-04-21 23:34 | -16.12450 | -69.02623 | 27304 ft | 414 kts | 125° |
| 2026-04-21 23:34 | -16.14157 | -69.00217 | 26865 ft | 411 kts | 126° |
| 2026-04-21 23:34 | -16.15849 | -68.97829 | 26419 ft | 409 kts | 125° |
| 2026-04-21 23:34 | -16.17533 | -68.95450 | 25965 ft | 407 kts | 125° |
| 2026-04-21 23:35 | -16.19209 | -68.93078 | 25513 ft | 407 kts | 126° |
| 2026-04-21 23:35 | -16.20866 | -68.90730 | 25047 ft | 407 kts | 125° |
| 2026-04-21 23:35 | -16.22547 | -68.88352 | 24590 ft | 406 kts | 125° |
| 2026-04-21 23:35 | -16.24213 | -68.85998 | 24089 ft | 403 kts | 125° |
| 2026-04-21 23:36 | -16.25863 | -68.83662 | 23632 ft | 399 kts | 125° |
| 2026-04-21 23:36 | -16.27500 | -68.81346 | 23109 ft | 394 kts | 125° |
| 2026-04-21 23:36 | -16.29120 | -68.79051 | 22552 ft | 391 kts | 125° |
| 2026-04-21 23:36 | -16.30720 | -68.76784 | 22078 ft | 386 kts | 126° |
| 2026-04-21 23:37 | -16.32301 | -68.74543 | 21617 ft | 382 kts | 125° |
| 2026-04-21 23:37 | -16.33862 | -68.72328 | 21164 ft | 376 kts | 126° |
| 2026-04-21 23:37 | -16.35403 | -68.70140 | 20717 ft | 373 kts | 126° |
| 2026-04-21 23:37 | -16.36928 | -68.67977 | 20281 ft | 368 kts | 126° |
| 2026-04-21 23:38 | -16.38432 | -68.65841 | 19883 ft | 363 kts | 126° |
| 2026-04-21 23:38 | -16.39889 | -68.63772 | 19756 ft | 345 kts | 126° |
| 2026-04-21 23:38 | -16.41278 | -68.61799 | 19638 ft | 329 kts | 126° |
| 2026-04-21 23:38 | -16.42617 | -68.59898 | 19132 ft | 328 kts | 126° |
| 2026-04-21 23:39 | -16.43958 | -68.57991 | 18642 ft | 327 kts | 126° |
| 2026-04-21 23:39 | -16.45268 | -68.56128 | 18534 ft | 312 kts | 126° |
| 2026-04-21 23:39 | -16.46522 | -68.54348 | 18467 ft | 296 kts | 126° |
| 2026-04-21 23:39 | -16.47707 | -68.52663 | 18384 ft | 281 kts | 126° |
| 2026-04-21 23:40 | -16.48833 | -68.51061 | 18281 ft | 267 kts | 126° |
| 2026-04-21 23:40 | -16.49810 | -68.49455 | 18034 ft | 260 kts | 114° |
| 2026-04-21 23:40 | -16.50359 | -68.47683 | 17717 ft | 256 kts | 99° |
| 2026-04-21 23:40 | -16.50491 | -68.45845 | 17396 ft | 253 kts | 92° |
| 2026-04-21 23:41 | -16.50538 | -68.44024 | 17078 ft | 250 kts | 92° |
| 2026-04-21 23:41 | -16.50590 | -68.42221 | 16775 ft | 247 kts | 92° |
| 2026-04-21 23:41 | -16.50648 | -68.40447 | 16452 ft | 243 kts | 92° |
| 2026-04-21 23:41 | -16.50705 | -68.38698 | 16063 ft | 240 kts | 92° |
| 2026-04-21 23:42 | -16.50762 | -68.36964 | 15677 ft | 238 kts | 92° |
| 2026-04-21 23:42 | -16.50818 | -68.35247 | 15296 ft | 236 kts | 92° |
| 2026-04-21 23:42 | -16.50873 | -68.33557 | 15063 ft | 231 kts | 92° |
| 2026-04-21 23:42 | -16.50926 | -68.31920 | 14878 ft | 220 kts | 92° |
| 2026-04-21 23:43 | -16.50976 | -68.30391 | 14702 ft | 199 kts | 92° |
| 2026-04-21 23:43 | -16.51020 | -68.29023 | 14538 ft | 179 kts | 91° |
| 2026-04-21 23:43 | -16.51060 | -68.27782 | 14362 ft | 166 kts | 92° |
| 2026-04-21 23:43 | -16.51098 | -68.26604 | 14176 ft | 160 kts | 92° |
| 2026-04-21 23:44 | -16.51135 | -68.25448 | 13982 ft | 159 kts | 91° |
| 2026-04-21 23:44 | -16.51171 | -68.24291 | 13757 ft | 160 kts | 91° |
| 2026-04-21 23:44 | -16.51207 | -68.23125 | 13504 ft | 162 kts | 91° |
| 2026-04-21 23:44 | -16.51242 | -68.21943 | 13292 ft | 164 kts | 92° |
| 2026-04-21 23:45 | -16.51283 | -68.20759 | 13152 ft | 162 kts | 92° |
| 2026-04-21 23:45 | -16.51345 | -68.18905 | 13239 ft | 81 kts | 92° |
| 2026-04-21 23:45 | -16.51355 | -68.18440 | 13263 ft | 51 kts | 85° |
| 2026-04-21 23:46 | -16.51262 | -68.18180 | 13277 ft | 27 kts | 54° |
| 2026-04-21 23:46 | -16.51171 | -68.18071 | 13275 ft | 18 kts | 47° |
| 2026-04-21 23:46 | -16.51117 | -68.18011 | 13269 ft | 10 kts | 47° |
| 2026-04-21 23:46 | -16.51054 | -68.17943 | 13258 ft | 15 kts | 46° |
| 2026-04-21 23:47 | -16.50995 | -68.17858 | 13249 ft | 16 kts | 80° |
| 2026-04-21 23:47 | -16.51004 | -68.17744 | 13259 ft | 16 kts | 111° |
| 2026-04-21 23:47 | -16.51049 | -68.17659 | 13274 ft | 10 kts | 118° |
| 2026-04-21 23:47 | -16.51027 | -68.17625 | 13272 ft | 2 kts | 32° |
| 2026-04-21 23:48 | -16.51013 | -68.17615 | 13271 ft | 1 kts | 36° |
| 2026-04-21 23:48 | -16.51009 | -68.17612 | 13271 ft | 0 kts | 36° |